Time,TemperatureF,DewpointF,PressureIn,WindDirection,WindDirectionDegrees,WindSpeedMPH,WindSpeedGustMPH,Humidity,HourlyPrecipIn,Conditions,Clouds,dailyrainin,SolarRadiationWatts/m^2,SoftwareType,DateUTC
2013-03-11 00:03:00,53.0,50.0,-100.00,East,82,0.0,0.0,91,0.00,,,0.00,0.000000,,2013-03-11 04:03:00,
2013-03-11 00:22:00,51.0,49.0,-100.00,East,93,0.0,0.0,93,0.00,,,0.00,0.000000,,2013-03-11 04:22:00,
2013-03-11 00:33:00,51.0,49.0,-100.00,East,93,0.0,0.0,93,0.00,,,0.00,0.000000,,2013-03-11 04:33:00,
2013-03-11 00:43:00,51.0,49.0,-100.00,East,93,0.0,0.0,93,0.00,,,0.00,0.000000,,2013-03-11 04:43:00,
2013-03-11 00:53:00,51.0,49.0,-100.00,East,93,0.0,0.0,93,0.00,,,0.00,0.000000,,2013-03-11 04:53:00,
2013-03-11 01:03:00,51.0,49.0,-100.00,East,93,0.0,0.0,93,0.00,,,0.00,0.000000,,2013-03-11 05:03:00,
2013-03-11 01:32:00,50.0,48.0,-100.00,East,90,0.0,0.0,93,0.00,,,0.00,0.000000,,2013-03-11 05:32:00,
2013-03-11 01:43:00,50.0,48.0,-100.00,East,90,0.0,0.0,93,0.00,,,0.00,0.000000,,2013-03-11 05:43:00,
2013-03-11 01:52:00,50.0,48.0,-100.00,East,90,0.0,0.0,93,0.00,,,0.00,0.000000,,2013-03-11 05:52:00,
2013-03-11 02:02:00,50.0,48.0,-100.00,East,90,0.0,0.0,93,0.00,,,0.00,0.000000,,2013-03-11 06:02:00,
2013-03-11 02:33:00,49.0,47.0,-100.00,ESE,105,0.0,1.0,94,0.00,,,0.00,0.000000,,2013-03-11 06:33:00,
2013-03-11 02:42:00,49.0,47.0,-100.00,ESE,105,0.0,1.0,94,0.00,,,0.00,0.000000,,2013-03-11 06:42:00,
2013-03-11 02:53:00,49.0,47.0,-100.00,ESE,105,0.0,1.0,94,0.00,,,0.00,0.000000,,2013-03-11 06:53:00,
2013-03-11 03:03:00,49.0,47.0,-100.00,ESE,105,0.0,1.0,94,0.00,,,0.00,0.000000,,2013-03-11 07:03:00,
2013-03-11 03:33:00,49.0,47.0,-100.00,East,101,0.0,2.0,94,0.00,,,0.00,0.000000,,2013-03-11 07:33:00,
2013-03-11 03:42:00,49.0,47.0,-100.00,East,101,0.0,2.0,94,0.00,,,0.00,0.000000,,2013-03-11 07:42:00,
2013-03-11 03:52:00,49.0,47.0,-100.00,East,101,0.0,2.0,94,0.00,,,0.00,0.000000,,2013-03-11 07:52:00,
2013-03-11 04:02:00,49.0,47.0,-100.00,East,101,0.0,2.0,94,0.00,,,0.00,0.000000,,2013-03-11 08:02:00,
2013-03-11 04:33:00,49.0,47.0,-100.00,ENE,77,1.0,2.0,94,0.00,,,0.00,0.000000,,2013-03-11 08:33:00,
2013-03-11 04:42:00,49.0,47.0,-100.00,ENE,77,1.0,2.0,94,0.00,,,0.00,0.000000,,2013-03-11 08:42:00,
2013-03-11 04:52:00,49.0,47.0,-100.00,ENE,77,1.0,2.0,94,0.00,,,0.00,0.000000,,2013-03-11 08:52:00,
2013-03-11 05:02:00,49.0,47.0,-100.00,ENE,77,1.0,2.0,94,0.00,,,0.00,0.000000,,2013-03-11 09:02:00,
2013-03-11 05:23:00,49.0,47.0,-100.00,ENE,62,1.0,4.0,94,0.00,,,-99.99,0.000000,,2013-03-11 09:23:00,
2013-03-11 05:32:00,49.0,47.0,-100.00,ENE,62,1.0,4.0,94,0.00,,,-99.99,0.000000,,2013-03-11 09:32:00,
2013-03-11 05:42:00,49.0,47.0,-100.00,ENE,62,1.0,4.0,94,0.00,,,-99.99,0.000000,,2013-03-11 09:42:00,
2013-03-11 05:53:00,49.0,47.0,-100.00,ENE,62,1.0,4.0,94,0.00,,,-99.99,0.000000,,2013-03-11 09:53:00,
2013-03-11 06:02:00,49.0,47.0,-100.00,ENE,62,1.0,4.0,94,0.00,,,-99.99,0.000000,,2013-03-11 10:02:00,
2013-03-11 06:33:00,48.0,46.0,-100.00,East,84,0.0,2.0,94,0.00,,,0.00,0.000000,,2013-03-11 10:33:00,
2013-03-11 06:42:00,48.0,46.0,-100.00,East,84,0.0,2.0,94,0.00,,,0.00,0.000000,,2013-03-11 10:42:00,
2013-03-11 06:52:00,48.0,46.0,-100.00,East,84,0.0,2.0,94,0.00,,,0.00,0.000000,,2013-03-11 10:52:00,
2013-03-11 07:02:00,48.0,46.0,-100.00,East,84,0.0,2.0,94,0.00,,,0.00,0.000000,,2013-03-11 11:02:00,
2013-03-11 07:33:00,49.0,47.0,-100.00,East,98,0.0,0.0,94,0.00,,,-99.99,0.000000,,2013-03-11 11:33:00,
2013-03-11 07:43:00,49.0,47.0,-100.00,East,98,0.0,0.0,94,0.00,,,-99.99,0.000000,,2013-03-11 11:43:00,
2013-03-11 07:53:00,49.0,47.0,-100.00,East,98,0.0,0.0,94,0.00,,,-99.99,0.000000,,2013-03-11 11:53:00,
2013-03-11 08:02:00,49.0,47.0,-100.00,East,98,0.0,0.0,94,0.00,,,-99.99,0.000000,,2013-03-11 12:02:00,
2013-03-11 08:33:00,48.0,46.0,-100.00,ENE,71,0.0,1.0,94,0.00,,,-99.99,5.000000,,2013-03-11 12:33:00,
2013-03-11 08:43:00,48.0,46.0,-100.00,ENE,71,0.0,1.0,94,0.00,,,-99.99,5.000000,,2013-03-11 12:43:00,
2013-03-11 08:53:00,48.0,46.0,-100.00,ENE,71,0.0,1.0,94,0.00,,,-99.99,5.000000,,2013-03-11 12:53:00,
2013-03-11 09:03:00,48.0,46.0,-100.00,ENE,71,0.0,1.0,94,0.00,,,-99.99,5.000000,,2013-03-11 13:03:00,
2013-03-11 09:23:00,52.0,50.0,-100.00,ENE,74,0.0,2.0,94,0.00,,,-99.99,77.000000,,2013-03-11 13:23:00,
2013-03-11 09:33:00,52.0,50.0,-100.00,ENE,74,0.0,2.0,94,0.00,,,-99.99,77.000000,,2013-03-11 13:33:00,
2013-03-11 09:43:00,52.0,50.0,-100.00,ENE,74,0.0,2.0,94,0.00,,,-99.99,77.000000,,2013-03-11 13:43:00,
2013-03-11 09:53:00,52.0,50.0,-100.00,ENE,74,0.0,2.0,94,0.00,,,-99.99,77.000000,,2013-03-11 13:53:00,
2013-03-11 10:02:00,52.0,50.0,-100.00,ENE,74,0.0,2.0,94,0.00,,,-99.99,77.000000,,2013-03-11 14:02:00,
2013-03-11 10:22:00,67.0,61.0,-100.00,ESE,114,3.0,7.0,80,0.00,,,0.00,276.000000,,2013-03-11 14:22:00,
2013-03-11 10:33:00,67.0,61.0,-100.00,ESE,114,3.0,7.0,80,0.00,,,0.00,276.000000,,2013-03-11 14:33:00,
2013-03-11 10:43:00,67.0,61.0,-100.00,ESE,114,3.0,7.0,80,0.00,,,0.00,276.000000,,2013-03-11 14:43:00,
2013-03-11 10:53:00,67.0,61.0,-100.00,ESE,114,3.0,7.0,80,0.00,,,0.00,276.000000,,2013-03-11 14:53:00,
2013-03-11 11:03:00,67.0,61.0,-100.00,ESE,114,3.0,7.0,80,0.00,,,0.00,276.000000,,2013-03-11 15:03:00,
2013-03-11 11:23:00,71.0,55.0,-100.00,SE,124,5.0,9.0,58,0.00,,,0.00,407.000000,,2013-03-11 15:23:00,
2013-03-11 11:33:00,71.0,55.0,-100.00,SE,124,5.0,9.0,58,0.00,,,0.00,407.000000,,2013-03-11 15:33:00,
2013-03-11 11:43:00,71.0,55.0,-100.00,SE,124,5.0,9.0,58,0.00,,,0.00,407.000000,,2013-03-11 15:43:00,
2013-03-11 11:53:00,71.0,55.0,-100.00,SE,124,5.0,9.0,58,0.00,,,0.00,407.000000,,2013-03-11 15:53:00,
2013-03-11 12:03:00,71.0,55.0,-100.00,SE,124,5.0,9.0,58,0.00,,,0.00,407.000000,,2013-03-11 16:03:00,
2013-03-11 12:32:00,71.0,54.0,-100.00,SE,128,5.0,11.0,54,0.00,,,0.00,488.000000,,2013-03-11 16:32:00,
2013-03-11 12:43:00,71.0,54.0,-100.00,SE,128,5.0,11.0,54,0.00,,,0.00,488.000000,,2013-03-11 16:43:00,
2013-03-11 12:52:00,71.0,54.0,-100.00,SE,128,5.0,11.0,54,0.00,,,0.00,488.000000,,2013-03-11 16:52:00,
2013-03-11 13:02:00,71.0,54.0,-100.00,SE,128,5.0,11.0,54,0.00,,,0.00,488.000000,,2013-03-11 17:02:00,
2013-03-11 13:38:00,72.0,55.0,-100.00,SE,137,5.0,12.0,55,0.00,,,-99.99,421.000000,,2013-03-11 17:38:00,
2013-03-11 13:53:00,72.0,55.0,-100.00,SE,137,5.0,12.0,55,0.00,,,-99.99,421.000000,,2013-03-11 17:53:00,
2013-03-11 14:02:00,72.0,55.0,-100.00,SE,137,5.0,12.0,55,0.00,,,-99.99,421.000000,,2013-03-11 18:02:00,
2013-03-11 14:33:00,72.0,54.0,-100.00,SE,139,7.0,12.0,54,0.00,,,-99.99,384.000000,,2013-03-11 18:33:00,
2013-03-11 14:43:00,72.0,54.0,-100.00,SE,139,7.0,12.0,54,0.00,,,-99.99,384.000000,,2013-03-11 18:43:00,
2013-03-11 14:53:00,72.0,54.0,-100.00,SE,139,7.0,12.0,54,0.00,,,-99.99,384.000000,,2013-03-11 18:53:00,
2013-03-11 15:02:00,72.0,54.0,-100.00,SE,139,7.0,12.0,54,0.00,,,-99.99,384.000000,,2013-03-11 19:02:00,
2013-03-11 15:33:00,72.0,52.0,-100.00,SE,139,5.0,12.0,50,0.00,,,0.00,334.000000,,2013-03-11 19:33:00,
2013-03-11 15:43:00,72.0,52.0,-100.00,SE,139,5.0,12.0,50,0.00,,,0.00,334.000000,,2013-03-11 19:43:00,
2013-03-11 15:53:00,72.0,52.0,-100.00,SE,139,5.0,12.0,50,0.00,,,0.00,334.000000,,2013-03-11 19:53:00,
2013-03-11 16:02:00,72.0,52.0,-100.00,SE,139,5.0,12.0,50,0.00,,,0.00,334.000000,,2013-03-11 20:02:00,
2013-03-11 16:33:00,72.0,55.0,-100.00,SE,125,5.0,13.0,56,0.00,,,0.00,343.000000,,2013-03-11 20:33:00,
2013-03-11 16:44:00,72.0,55.0,-100.00,SE,125,5.0,13.0,56,0.00,,,0.00,343.000000,,2013-03-11 20:44:00,
2013-03-11 16:53:00,72.0,55.0,-100.00,SE,125,5.0,13.0,56,0.00,,,0.00,343.000000,,2013-03-11 20:53:00,
2013-03-11 17:03:00,72.0,55.0,-100.00,SE,125,5.0,13.0,56,0.00,,,0.00,343.000000,,2013-03-11 21:03:00,
2013-03-11 17:33:00,73.0,57.0,-100.00,SE,134,6.0,12.0,57,0.00,,,0.00,354.000000,,2013-03-11 21:33:00,
2013-03-11 17:44:00,73.0,57.0,-100.00,SE,134,6.0,12.0,57,0.00,,,0.00,354.000000,,2013-03-11 21:44:00,
2013-03-11 17:53:00,73.0,57.0,-100.00,SE,134,6.0,12.0,57,0.00,,,0.00,354.000000,,2013-03-11 21:53:00,
2013-03-11 18:03:00,73.0,57.0,-100.00,SE,134,6.0,12.0,57,0.00,,,0.00,354.000000,,2013-03-11 22:03:00,
2013-03-11 18:33:00,70.0,55.0,-100.00,SE,124,5.0,12.0,60,0.00,,,0.00,209.000000,,2013-03-11 22:33:00,
2013-03-11 18:43:00,70.0,55.0,-100.00,SE,124,5.0,12.0,60,0.00,,,0.00,209.000000,,2013-03-11 22:43:00,
2013-03-11 18:53:00,70.0,55.0,-100.00,SE,124,5.0,12.0,60,0.00,,,0.00,209.000000,,2013-03-11 22:53:00,
2013-03-11 19:03:00,70.0,55.0,-100.00,SE,124,5.0,12.0,60,0.00,,,0.00,209.000000,,2013-03-11 23:03:00,
2013-03-11 19:33:00,67.0,57.0,-100.00,SE,128,5.0,10.0,70,0.00,,,0.00,61.000000,,2013-03-11 23:33:00,
2013-03-11 19:43:00,67.0,57.0,-100.00,SE,128,5.0,10.0,70,0.00,,,0.00,61.000000,,2013-03-11 23:43:00,
2013-03-11 19:54:00,67.0,57.0,-100.00,SE,128,5.0,10.0,70,0.00,,,0.00,61.000000,,2013-03-11 23:54:00,
2013-03-11 20:02:00,67.0,57.0,-100.00,SE,128,5.0,10.0,70,0.00,,,0.00,61.000000,,2013-03-12 00:02:00,
2013-03-11 20:33:00,65.0,58.0,-100.00,SE,127,5.0,12.0,77,0.00,,,0.00,5.000000,,2013-03-12 00:33:00,
2013-03-11 20:43:00,65.0,58.0,-100.00,SE,127,5.0,12.0,77,0.00,,,0.00,5.000000,,2013-03-12 00:43:00,
2013-03-11 20:54:00,65.0,58.0,-100.00,SE,127,5.0,12.0,77,0.00,,,0.00,5.000000,,2013-03-12 00:54:00,
2013-03-11 21:02:00,65.0,58.0,-100.00,SE,127,5.0,12.0,77,0.00,,,0.00,5.000000,,2013-03-12 01:02:00,
2013-03-11 21:33:00,65.0,58.0,-100.00,SE,134,4.0,11.0,77,0.00,,,0.00,0.000000,,2013-03-12 01:33:00,
2013-03-11 21:42:00,65.0,58.0,-100.00,SE,134,4.0,11.0,77,0.00,,,0.00,0.000000,,2013-03-12 01:42:00,
2013-03-11 21:53:00,65.0,58.0,-100.00,SE,134,4.0,11.0,77,0.00,,,0.00,0.000000,,2013-03-12 01:53:00,
2013-03-11 22:02:00,65.0,58.0,-100.00,SE,134,4.0,11.0,77,0.00,,,0.00,0.000000,,2013-03-12 02:02:00,
2013-03-11 22:32:00,65.0,57.0,-100.00,SE,141,5.0,12.0,76,0.00,,,0.00,0.000000,,2013-03-12 02:32:00,
2013-03-11 22:43:00,65.0,57.0,-100.00,SE,141,5.0,12.0,76,0.00,,,0.00,0.000000,,2013-03-12 02:43:00,
2013-03-11 22:52:00,65.0,57.0,-100.00,SE,141,5.0,12.0,76,0.00,,,0.00,0.000000,,2013-03-12 02:52:00,
2013-03-11 23:02:00,65.0,57.0,-100.00,SE,141,5.0,12.0,76,0.00,,,0.00,0.000000,,2013-03-12 03:02:00,
2013-03-11 23:32:00,66.0,57.0,-100.00,SSE,154,4.0,13.0,72,0.00,,,0.00,0.000000,,2013-03-12 03:32:00,
2013-03-11 23:43:00,66.0,57.0,-100.00,SSE,154,4.0,13.0,72,0.00,,,0.00,0.000000,,2013-03-12 03:43:00,
2013-03-11 23:53:00,66.0,57.0,-100.00,SSE,154,4.0,13.0,72,0.00,,,0.00,0.000000,,2013-03-12 03:53:00,